sensor_id;sensor_type;location;lat;lon;timestamp;P1;durP1;ratioP1;P2;durP2;ratioP2
18104;SDS011;9179;50.968;3.134;2023-08-08T00:01:12;10.85;;;3.83;;
18104;SDS011;9179;50.968;3.134;2023-08-08T00:03:39;5.50;;;4.03;;
18104;SDS011;9179;50.968;3.134;2023-08-08T00:06:06;11.30;;;4.40;;
18104;SDS011;9179;50.968;3.134;2023-08-08T00:08:34;7.88;;;4.15;;
18104;SDS011;9179;50.968;3.134;2023-08-08T00:11:01;7.05;;;4.35;;
18104;SDS011;9179;50.968;3.134;2023-08-08T00:13:28;5.68;;;3.47;;
18104;SDS011;9179;50.968;3.134;2023-08-08T00:15:55;7.20;;;4.15;;
18104;SDS011;9179;50.968;3.134;2023-08-08T00:18:22;5.45;;;3.92;;
18104;SDS011;9179;50.968;3.134;2023-08-08T00:20:49;8.95;;;4.28;;
18104;SDS011;9179;50.968;3.134;2023-08-08T00:23:16;14.20;;;4.80;;
18104;SDS011;9179;50.968;3.134;2023-08-08T00:25:44;9.02;;;4.22;;
18104;SDS011;9179;50.968;3.134;2023-08-08T00:28:14;5.88;;;4.45;;
18104;SDS011;9179;50.968;3.134;2023-08-08T00:30:41;11.43;;;5.25;;
18104;SDS011;9179;50.968;3.134;2023-08-08T00:33:08;9.30;;;4.78;;
18104;SDS011;9179;50.968;3.134;2023-08-08T00:35:35;11.52;;;4.72;;
18104;SDS011;9179;50.968;3.134;2023-08-08T00:38:02;13.52;;;4.55;;
18104;SDS011;9179;50.968;3.134;2023-08-08T00:40:29;6.10;;;4.45;;
18104;SDS011;9179;50.968;3.134;2023-08-08T00:42:57;8.23;;;4.55;;
18104;SDS011;9179;50.968;3.134;2023-08-08T00:45:24;9.18;;;4.68;;
18104;SDS011;9179;50.968;3.134;2023-08-08T00:47:51;9.18;;;4.45;;
18104;SDS011;9179;50.968;3.134;2023-08-08T00:50:18;8.23;;;4.40;;
18104;SDS011;9179;50.968;3.134;2023-08-08T00:52:45;6.47;;;4.28;;
18104;SDS011;9179;50.968;3.134;2023-08-08T00:55:13;8.73;;;5.72;;
18104;SDS011;9179;50.968;3.134;2023-08-08T00:57:40;9.02;;;5.13;;
18104;SDS011;9179;50.968;3.134;2023-08-08T01:00:09;7.68;;;4.63;;
18104;SDS011;9179;50.968;3.134;2023-08-08T01:02:37;12.63;;;5.57;;
18104;SDS011;9179;50.968;3.134;2023-08-08T01:05:04;10.13;;;5.18;;
18104;SDS011;9179;50.968;3.134;2023-08-08T01:07:34;14.27;;;6.78;;
18104;SDS011;9179;50.968;3.134;2023-08-08T01:10:06;11.75;;;4.45;;
18104;SDS011;9179;50.968;3.134;2023-08-08T01:12:37;7.20;;;4.47;;
18104;SDS011;9179;50.968;3.134;2023-08-08T01:15:09;12.63;;;4.60;;
18104;SDS011;9179;50.968;3.134;2023-08-08T01:17:37;9.60;;;4.60;;
18104;SDS011;9179;50.968;3.134;2023-08-08T01:20:05;11.95;;;6.15;;
18104;SDS011;9179;50.968;3.134;2023-08-08T01:22:36;8.27;;;4.38;;
18104;SDS011;9179;50.968;3.134;2023-08-08T01:25:08;10.52;;;4.70;;
18104;SDS011;9179;50.968;3.134;2023-08-08T01:27:35;10.73;;;4.82;;
18104;SDS011;9179;50.968;3.134;2023-08-08T01:30:02;8.77;;;4.32;;
18104;SDS011;9179;50.968;3.134;2023-08-08T01:32:30;10.20;;;4.22;;
18104;SDS011;9179;50.968;3.134;2023-08-08T01:34:56;9.43;;;4.10;;
18104;SDS011;9179;50.968;3.134;2023-08-08T01:37:24;7.88;;;4.60;;
18104;SDS011;9179;50.968;3.134;2023-08-08T01:39:59;10.02;;;4.50;;
18104;SDS011;9179;50.968;3.134;2023-08-08T01:42:29;8.48;;;4.72;;
18104;SDS011;9179;50.968;3.134;2023-08-08T01:44:56;10.20;;;5.13;;
18104;SDS011;9179;50.968;3.134;2023-08-08T01:47:23;8.93;;;4.93;;
18104;SDS011;9179;50.968;3.134;2023-08-08T01:49:50;5.90;;;4.20;;
18104;SDS011;9179;50.968;3.134;2023-08-08T01:52:17;9.60;;;5.00;;
18104;SDS011;9179;50.968;3.134;2023-08-08T01:54:44;10.73;;;4.95;;
18104;SDS011;9179;50.968;3.134;2023-08-08T01:57:11;14.40;;;5.40;;
18104;SDS011;9179;50.968;3.134;2023-08-08T01:59:39;7.90;;;5.03;;
18104;SDS011;9179;50.968;3.134;2023-08-08T02:02:06;8.90;;;5.57;;
18104;SDS011;9179;50.968;3.134;2023-08-08T02:04:33;9.27;;;5.07;;
18104;SDS011;9179;50.968;3.134;2023-08-08T02:07:00;9.98;;;5.10;;
18104;SDS011;9179;50.968;3.134;2023-08-08T02:09:27;15.18;;;6.05;;
18104;SDS011;9179;50.968;3.134;2023-08-08T02:11:54;7.03;;;5.07;;
18104;SDS011;9179;50.968;3.134;2023-08-08T02:14:20;8.48;;;5.00;;
18104;SDS011;9179;50.968;3.134;2023-08-08T02:16:49;8.15;;;5.25;;
18104;SDS011;9179;50.968;3.134;2023-08-08T02:19:16;7.20;;;4.82;;
18104;SDS011;9179;50.968;3.134;2023-08-08T02:21:42;7.55;;;4.95;;
18104;SDS011;9179;50.968;3.134;2023-08-08T02:24:10;6.20;;;5.00;;
18104;SDS011;9179;50.968;3.134;2023-08-08T02:26:37;10.30;;;5.50;;
18104;SDS011;9179;50.968;3.134;2023-08-08T02:29:04;11.63;;;5.45;;
18104;SDS011;9179;50.968;3.134;2023-08-08T02:31:31;8.63;;;4.90;;
18104;SDS011;9179;50.968;3.134;2023-08-08T02:33:59;6.88;;;4.63;;
18104;SDS011;9179;50.968;3.134;2023-08-08T02:36:26;7.25;;;4.90;;
18104;SDS011;9179;50.968;3.134;2023-08-08T02:38:53;8.43;;;5.00;;
18104;SDS011;9179;50.968;3.134;2023-08-08T02:41:19;11.57;;;4.57;;
18104;SDS011;9179;50.968;3.134;2023-08-08T02:43:46;13.95;;;6.00;;
18104;SDS011;9179;50.968;3.134;2023-08-08T02:46:13;9.60;;;5.30;;
18104;SDS011;9179;50.968;3.134;2023-08-08T02:48:40;12.27;;;6.50;;
18104;SDS011;9179;50.968;3.134;2023-08-08T02:51:08;5.28;;;4.25;;
18104;SDS011;9179;50.968;3.134;2023-08-08T02:53:35;10.52;;;5.20;;
18104;SDS011;9179;50.968;3.134;2023-08-08T02:56:02;12.40;;;5.95;;
18104;SDS011;9179;50.968;3.134;2023-08-08T02:58:29;13.63;;;4.50;;
18104;SDS011;9179;50.968;3.134;2023-08-08T03:00:56;6.97;;;4.57;;
18104;SDS011;9179;50.968;3.134;2023-08-08T03:03:23;10.23;;;4.88;;
18104;SDS011;9179;50.968;3.134;2023-08-08T03:05:50;8.68;;;4.80;;
18104;SDS011;9179;50.968;3.134;2023-08-08T03:08:18;9.02;;;5.70;;
18104;SDS011;9179;50.968;3.134;2023-08-08T03:10:45;7.03;;;4.93;;
18104;SDS011;9179;50.968;3.134;2023-08-08T03:13:12;8.93;;;5.88;;
18104;SDS011;9179;50.968;3.134;2023-08-08T03:15:39;10.55;;;5.00;;
18104;SDS011;9179;50.968;3.134;2023-08-08T03:18:05;9.65;;;5.15;;
18104;SDS011;9179;50.968;3.134;2023-08-08T03:20:32;13.05;;;4.90;;
18104;SDS011;9179;50.968;3.134;2023-08-08T03:22:59;12.52;;;4.90;;
18104;SDS011;9179;50.968;3.134;2023-08-08T03:25:27;8.10;;;5.32;;
18104;SDS011;9179;50.968;3.134;2023-08-08T03:27:54;13.65;;;6.22;;
18104;SDS011;9179;50.968;3.134;2023-08-08T03:30:22;6.38;;;4.80;;
18104;SDS011;9179;50.968;3.134;2023-08-08T03:32:49;10.57;;;4.95;;
18104;SDS011;9179;50.968;3.134;2023-08-08T03:35:16;11.77;;;6.25;;
18104;SDS011;9179;50.968;3.134;2023-08-08T03:37:43;8.30;;;5.13;;
18104;SDS011;9179;50.968;3.134;2023-08-08T03:40:10;14.88;;;6.65;;
18104;SDS011;9179;50.968;3.134;2023-08-08T03:42:40;11.27;;;5.22;;
18104;SDS011;9179;50.968;3.134;2023-08-08T03:45:07;12.73;;;5.03;;
18104;SDS011;9179;50.968;3.134;2023-08-08T03:47:35;8.10;;;4.60;;
18104;SDS011;9179;50.968;3.134;2023-08-08T03:50:02;8.90;;;5.10;;
18104;SDS011;9179;50.968;3.134;2023-08-08T03:52:31;6.22;;;5.28;;
18104;SDS011;9179;50.968;3.134;2023-08-08T03:55:00;8.98;;;6.00;;
18104;SDS011;9179;50.968;3.134;2023-08-08T03:57:28;6.10;;;5.10;;
18104;SDS011;9179;50.968;3.134;2023-08-08T03:59:56;11.65;;;4.90;;
18104;SDS011;9179;50.968;3.134;2023-08-08T04:02:23;9.38;;;4.40;;
18104;SDS011;9179;50.968;3.134;2023-08-08T04:04:51;6.93;;;5.07;;
18104;SDS011;9179;50.968;3.134;2023-08-08T04:07:17;8.48;;;6.22;;
18104;SDS011;9179;50.968;3.134;2023-08-08T04:09:44;10.80;;;5.35;;
18104;SDS011;9179;50.968;3.134;2023-08-08T04:12:11;8.40;;;5.15;;
18104;SDS011;9179;50.968;3.134;2023-08-08T04:14:38;12.68;;;5.38;;
18104;SDS011;9179;50.968;3.134;2023-08-08T04:17:06;10.90;;;5.30;;
18104;SDS011;9179;50.968;3.134;2023-08-08T04:19:33;9.55;;;4.55;;
18104;SDS011;9179;50.968;3.134;2023-08-08T04:22:00;8.63;;;4.85;;
18104;SDS011;9179;50.968;3.134;2023-08-08T04:24:27;13.18;;;4.88;;
18104;SDS011;9179;50.968;3.134;2023-08-08T04:26:54;8.57;;;5.47;;
18104;SDS011;9179;50.968;3.134;2023-08-08T04:29:21;9.65;;;4.28;;
18104;SDS011;9179;50.968;3.134;2023-08-08T04:31:48;6.03;;;4.95;;
18104;SDS011;9179;50.968;3.134;2023-08-08T04:34:16;9.02;;;4.53;;
18104;SDS011;9179;50.968;3.134;2023-08-08T04:36:43;12.40;;;4.78;;
18104;SDS011;9179;50.968;3.134;2023-08-08T04:39:10;13.65;;;4.55;;
18104;SDS011;9179;50.968;3.134;2023-08-08T04:41:37;11.82;;;5.97;;
18104;SDS011;9179;50.968;3.134;2023-08-08T04:44:04;15.00;;;4.72;;
18104;SDS011;9179;50.968;3.134;2023-08-08T04:46:30;8.10;;;4.95;;
18104;SDS011;9179;50.968;3.134;2023-08-08T04:48:57;9.90;;;5.75;;
18104;SDS011;9179;50.968;3.134;2023-08-08T04:51:26;12.40;;;5.35;;
18104;SDS011;9179;50.968;3.134;2023-08-08T04:53:52;8.77;;;5.03;;
18104;SDS011;9179;50.968;3.134;2023-08-08T04:56:19;8.15;;;4.72;;
18104;SDS011;9179;50.968;3.134;2023-08-08T04:58:46;6.55;;;4.43;;
18104;SDS011;9179;50.968;3.134;2023-08-08T05:01:13;8.90;;;4.57;;
18104;SDS011;9179;50.968;3.134;2023-08-08T05:03:42;6.88;;;5.03;;
18104;SDS011;9179;50.968;3.134;2023-08-08T05:06:09;12.05;;;4.40;;
18104;SDS011;9179;50.968;3.134;2023-08-08T05:08:37;9.60;;;4.22;;
18104;SDS011;9179;50.968;3.134;2023-08-08T05:11:04;9.00;;;4.07;;
18104;SDS011;9179;50.968;3.134;2023-08-08T05:13:31;6.82;;;4.40;;
18104;SDS011;9179;50.968;3.134;2023-08-08T05:15:58;8.13;;;3.85;;
18104;SDS011;9179;50.968;3.134;2023-08-08T05:18:25;8.43;;;4.35;;
18104;SDS011;9179;50.968;3.134;2023-08-08T05:20:52;9.77;;;4.65;;
18104;SDS011;9179;50.968;3.134;2023-08-08T05:23:18;17.75;;;4.95;;
18104;SDS011;9179;50.968;3.134;2023-08-08T05:25:47;9.90;;;4.53;;
18104;SDS011;9179;50.968;3.134;2023-08-08T05:28:13;8.05;;;5.35;;
18104;SDS011;9179;50.968;3.134;2023-08-08T05:30:40;7.22;;;4.32;;
18104;SDS011;9179;50.968;3.134;2023-08-08T05:33:07;8.55;;;3.70;;
18104;SDS011;9179;50.968;3.134;2023-08-08T05:35:34;4.75;;;3.22;;
18104;SDS011;9179;50.968;3.134;2023-08-08T05:38:01;5.25;;;3.45;;
18104;SDS011;9179;50.968;3.134;2023-08-08T05:40:28;4.10;;;3.10;;
18104;SDS011;9179;50.968;3.134;2023-08-08T05:42:56;6.43;;;2.83;;
18104;SDS011;9179;50.968;3.134;2023-08-08T05:45:23;5.95;;;3.45;;
18104;SDS011;9179;50.968;3.134;2023-08-08T05:47:50;6.75;;;3.10;;
18104;SDS011;9179;50.968;3.134;2023-08-08T05:50:17;3.72;;;2.95;;
18104;SDS011;9179;50.968;3.134;2023-08-08T05:52:44;6.00;;;3.33;;
18104;SDS011;9179;50.968;3.134;2023-08-08T05:55:11;6.97;;;3.25;;
18104;SDS011;9179;50.968;3.134;2023-08-08T05:57:38;4.03;;;3.10;;
18104;SDS011;9179;50.968;3.134;2023-08-08T06:00:07;6.47;;;3.22;;
18104;SDS011;9179;50.968;3.134;2023-08-08T06:02:36;4.75;;;3.40;;
18104;SDS011;9179;50.968;3.134;2023-08-08T06:05:03;4.82;;;3.03;;
18104;SDS011;9179;50.968;3.134;2023-08-08T06:07:30;5.70;;;2.40;;
18104;SDS011;9179;50.968;3.134;2023-08-08T06:09:57;5.53;;;2.50;;
18104;SDS011;9179;50.968;3.134;2023-08-08T06:12:24;8.52;;;2.60;;
18104;SDS011;9179;50.968;3.134;2023-08-08T06:14:51;5.32;;;2.90;;
18104;SDS011;9179;50.968;3.134;2023-08-08T06:17:19;4.13;;;2.90;;
18104;SDS011;9179;50.968;3.134;2023-08-08T06:19:48;5.80;;;2.97;;
18104;SDS011;9179;50.968;3.134;2023-08-08T06:22:15;5.38;;;3.30;;
18104;SDS011;9179;50.968;3.134;2023-08-08T06:24:42;7.03;;;3.10;;
18104;SDS011;9179;50.968;3.134;2023-08-08T06:27:09;8.93;;;3.63;;
18104;SDS011;9179;50.968;3.134;2023-08-08T06:29:36;6.07;;;3.00;;
18104;SDS011;9179;50.968;3.134;2023-08-08T06:32:03;5.93;;;3.17;;
18104;SDS011;9179;50.968;3.134;2023-08-08T06:34:31;6.97;;;3.17;;
18104;SDS011;9179;50.968;3.134;2023-08-08T06:36:58;3.67;;;2.35;;
18104;SDS011;9179;50.968;3.134;2023-08-08T06:39:25;5.93;;;2.75;;
18104;SDS011;9179;50.968;3.134;2023-08-08T06:41:52;9.85;;;3.28;;
18104;SDS011;9179;50.968;3.134;2023-08-08T06:44:19;3.95;;;2.80;;
18104;SDS011;9179;50.968;3.134;2023-08-08T06:46:46;3.38;;;2.80;;
18104;SDS011;9179;50.968;3.134;2023-08-08T06:49:13;7.72;;;3.40;;
18104;SDS011;9179;50.968;3.134;2023-08-08T06:51:41;3.85;;;2.85;;
18104;SDS011;9179;50.968;3.134;2023-08-08T06:54:08;5.05;;;2.97;;
18104;SDS011;9179;50.968;3.134;2023-08-08T06:56:34;6.32;;;3.03;;
18104;SDS011;9179;50.968;3.134;2023-08-08T06:59:01;4.35;;;2.78;;
18104;SDS011;9179;50.968;3.134;2023-08-08T07:01:28;4.63;;;2.75;;
18104;SDS011;9179;50.968;3.134;2023-08-08T07:03:55;5.53;;;2.40;;
18104;SDS011;9179;50.968;3.134;2023-08-08T07:06:22;3.97;;;2.80;;
18104;SDS011;9179;50.968;3.134;2023-08-08T07:08:51;4.35;;;3.08;;
18104;SDS011;9179;50.968;3.134;2023-08-08T07:11:18;2.85;;;2.60;;
18104;SDS011;9179;50.968;3.134;2023-08-08T07:13:45;5.15;;;2.90;;
18104;SDS011;9179;50.968;3.134;2023-08-08T07:16:12;5.20;;;3.42;;
18104;SDS011;9179;50.968;3.134;2023-08-08T07:18:39;5.68;;;3.15;;
18104;SDS011;9179;50.968;3.134;2023-08-08T07:21:06;4.45;;;2.58;;
18104;SDS011;9179;50.968;3.134;2023-08-08T07:23:33;3.13;;;2.63;;
18104;SDS011;9179;50.968;3.134;2023-08-08T07:26:01;5.13;;;3.00;;
18104;SDS011;9179;50.968;3.134;2023-08-08T07:28:28;7.57;;;2.90;;
18104;SDS011;9179;50.968;3.134;2023-08-08T07:30:55;3.25;;;2.70;;
18104;SDS011;9179;50.968;3.134;2023-08-08T07:33:22;2.70;;;2.22;;
18104;SDS011;9179;50.968;3.134;2023-08-08T07:35:49;4.75;;;3.33;;
18104;SDS011;9179;50.968;3.134;2023-08-08T07:38:16;4.25;;;2.60;;
18104;SDS011;9179;50.968;3.134;2023-08-08T07:40:42;6.22;;;3.08;;
18104;SDS011;9179;50.968;3.134;2023-08-08T07:43:12;5.65;;;3.22;;
18104;SDS011;9179;50.968;3.134;2023-08-08T07:45:39;4.15;;;2.85;;
18104;SDS011;9179;50.968;3.134;2023-08-08T07:48:06;3.47;;;2.40;;
18104;SDS011;9179;50.968;3.134;2023-08-08T07:50:33;4.28;;;2.72;;
18104;SDS011;9179;50.968;3.134;2023-08-08T07:53:00;5.70;;;2.45;;
18104;SDS011;9179;50.968;3.134;2023-08-08T07:55:27;3.65;;;2.28;;
18104;SDS011;9179;50.968;3.134;2023-08-08T07:57:54;4.05;;;2.40;;
18104;SDS011;9179;50.968;3.134;2023-08-08T08:00:22;5.20;;;2.55;;
18104;SDS011;9179;50.968;3.134;2023-08-08T08:02:49;3.50;;;2.47;;
18104;SDS011;9179;50.968;3.134;2023-08-08T08:05:15;6.28;;;2.65;;
18104;SDS011;9179;50.968;3.134;2023-08-08T08:07:43;4.18;;;3.08;;
18104;SDS011;9179;50.968;3.134;2023-08-08T08:10:11;4.00;;;2.78;;
18104;SDS011;9179;50.968;3.134;2023-08-08T08:12:39;3.00;;;2.65;;
18104;SDS011;9179;50.968;3.134;2023-08-08T08:15:07;5.15;;;2.47;;
18104;SDS011;9179;50.968;3.134;2023-08-08T08:17:36;3.38;;;2.80;;
18104;SDS011;9179;50.968;3.134;2023-08-08T08:20:04;3.83;;;2.80;;
18104;SDS011;9179;50.968;3.134;2023-08-08T08:22:36;4.15;;;2.92;;
18104;SDS011;9179;50.968;3.134;2023-08-08T08:25:03;4.05;;;3.05;;
18104;SDS011;9179;50.968;3.134;2023-08-08T08:27:32;5.40;;;2.92;;
18104;SDS011;9179;50.968;3.134;2023-08-08T08:29:59;5.25;;;2.92;;
18104;SDS011;9179;50.968;3.134;2023-08-08T08:32:26;4.47;;;2.90;;
18104;SDS011;9179;50.968;3.134;2023-08-08T08:34:54;4.63;;;2.70;;
18104;SDS011;9179;50.968;3.134;2023-08-08T08:37:21;5.22;;;3.20;;
18104;SDS011;9179;50.968;3.134;2023-08-08T08:39:48;4.65;;;3.08;;
18104;SDS011;9179;50.968;3.134;2023-08-08T08:42:15;4.60;;;3.35;;
18104;SDS011;9179;50.968;3.134;2023-08-08T08:44:42;4.82;;;3.33;;
18104;SDS011;9179;50.968;3.134;2023-08-08T08:47:09;6.10;;;2.85;;
18104;SDS011;9179;50.968;3.134;2023-08-08T08:49:39;4.50;;;2.53;;
18104;SDS011;9179;50.968;3.134;2023-08-08T08:52:12;5.00;;;2.78;;
18104;SDS011;9179;50.968;3.134;2023-08-08T08:54:39;3.20;;;2.42;;
18104;SDS011;9179;50.968;3.134;2023-08-08T08:57:07;2.30;;;2.10;;
18104;SDS011;9179;50.968;3.134;2023-08-08T08:59:34;3.08;;;2.03;;
18104;SDS011;9179;50.968;3.134;2023-08-08T09:02:01;3.60;;;1.80;;
18104;SDS011;9179;50.968;3.134;2023-08-08T09:04:28;2.75;;;1.75;;
18104;SDS011;9179;50.968;3.134;2023-08-08T09:06:56;4.18;;;2.00;;
18104;SDS011;9179;50.968;3.134;2023-08-08T09:09:24;2.50;;;2.30;;
18104;SDS011;9179;50.968;3.134;2023-08-08T09:11:51;1.73;;;1.60;;
18104;SDS011;9179;50.968;3.134;2023-08-08T09:14:21;3.67;;;2.35;;
18104;SDS011;9179;50.968;3.134;2023-08-08T09:16:49;3.50;;;2.40;;
18104;SDS011;9179;50.968;3.134;2023-08-08T09:19:18;4.72;;;2.20;;
18104;SDS011;9179;50.968;3.134;2023-08-08T09:21:46;1.75;;;1.65;;
18104;SDS011;9179;50.968;3.134;2023-08-08T09:24:13;2.42;;;1.85;;
18104;SDS011;9179;50.968;3.134;2023-08-08T09:26:41;1.65;;;1.55;;
18104;SDS011;9179;50.968;3.134;2023-08-08T09:29:09;1.98;;;1.40;;
18104;SDS011;9179;50.968;3.134;2023-08-08T09:31:38;3.42;;;1.90;;
18104;SDS011;9179;50.968;3.134;2023-08-08T09:34:05;1.70;;;1.60;;
18104;SDS011;9179;50.968;3.134;2023-08-08T09:36:33;1.13;;;1.10;;
18104;SDS011;9179;50.968;3.134;2023-08-08T09:39:01;1.40;;;1.08;;
18104;SDS011;9179;50.968;3.134;2023-08-08T09:41:29;1.30;;;1.20;;
18104;SDS011;9179;50.968;3.134;2023-08-08T09:43:58;1.60;;;1.50;;
18104;SDS011;9179;50.968;3.134;2023-08-08T09:46:26;1.60;;;1.50;;
18104;SDS011;9179;50.968;3.134;2023-08-08T09:48:55;4.43;;;1.45;;
18104;SDS011;9179;50.968;3.134;2023-08-08T09:51:23;1.65;;;1.10;;
18104;SDS011;9179;50.968;3.134;2023-08-08T09:53:52;1.55;;;1.45;;
18104;SDS011;9179;50.968;3.134;2023-08-08T09:56:19;1.73;;;1.00;;
18104;SDS011;9179;50.968;3.134;2023-08-08T09:58:48;1.48;;;1.15;;
18104;SDS011;9179;50.968;3.134;2023-08-08T10:01:16;1.55;;;1.45;;
18104;SDS011;9179;50.968;3.134;2023-08-08T10:03:44;1.85;;;1.75;;
18104;SDS011;9179;50.968;3.134;2023-08-08T10:06:12;2.10;;;1.30;;
18104;SDS011;9179;50.968;3.134;2023-08-08T10:08:40;1.90;;;1.55;;
18104;SDS011;9179;50.968;3.134;2023-08-08T10:11:08;1.40;;;1.20;;
18104;SDS011;9179;50.968;3.134;2023-08-08T10:13:36;2.03;;;1.27;;
18104;SDS011;9179;50.968;3.134;2023-08-08T10:16:04;1.45;;;1.35;;
18104;SDS011;9179;50.968;3.134;2023-08-08T10:18:34;1.33;;;1.23;;
18104;SDS011;9179;50.968;3.134;2023-08-08T10:21:03;2.35;;;1.73;;
18104;SDS011;9179;50.968;3.134;2023-08-08T10:23:35;1.27;;;1.13;;
18104;SDS011;9179;50.968;3.134;2023-08-08T10:26:03;1.40;;;1.23;;
18104;SDS011;9179;50.968;3.134;2023-08-08T10:28:31;1.50;;;1.40;;
18104;SDS011;9179;50.968;3.134;2023-08-08T10:31:00;1.23;;;1.05;;
18104;SDS011;9179;50.968;3.134;2023-08-08T10:33:40;4.85;;;1.27;;
18104;SDS011;9179;50.968;3.134;2023-08-08T10:36:08;2.03;;;1.48;;
18104;SDS011;9179;50.968;3.134;2023-08-08T10:38:39;1.85;;;1.40;;
18104;SDS011;9179;50.968;3.134;2023-08-08T10:41:08;2.35;;;1.50;;
18104;SDS011;9179;50.968;3.134;2023-08-08T10:43:37;1.58;;;1.48;;
18104;SDS011;9179;50.968;3.134;2023-08-08T10:46:06;1.33;;;1.23;;
18104;SDS011;9179;50.968;3.134;2023-08-08T10:48:33;2.10;;;1.35;;
18104;SDS011;9179;50.968;3.134;2023-08-08T10:51:01;2.22;;;1.55;;
18104;SDS011;9179;50.968;3.134;2023-08-08T10:53:28;2.17;;;1.35;;
18104;SDS011;9179;50.968;3.134;2023-08-08T10:55:58;2.25;;;1.40;;
18104;SDS011;9179;50.968;3.134;2023-08-08T10:58:36;1.55;;;1.25;;
18104;SDS011;9179;50.968;3.134;2023-08-08T11:01:03;1.15;;;1.00;;
18104;SDS011;9179;50.968;3.134;2023-08-08T11:03:33;2.92;;;1.50;;
18104;SDS011;9179;50.968;3.134;2023-08-08T11:06:03;2.03;;;1.10;;
18104;SDS011;9179;50.968;3.134;2023-08-08T11:08:31;1.23;;;1.20;;
18104;SDS011;9179;50.968;3.134;2023-08-08T11:10:58;1.40;;;1.30;;
18104;SDS011;9179;50.968;3.134;2023-08-08T11:13:25;1.55;;;1.48;;
18104;SDS011;9179;50.968;3.134;2023-08-08T11:15:52;1.52;;;1.42;;
18104;SDS011;9179;50.968;3.134;2023-08-08T11:18:20;1.58;;;1.20;;
18104;SDS011;9179;50.968;3.134;2023-08-08T11:20:47;1.60;;;1.50;;
18104;SDS011;9179;50.968;3.134;2023-08-08T11:23:16;2.28;;;1.30;;
18104;SDS011;9179;50.968;3.134;2023-08-08T11:25:45;2.97;;;1.25;;
18104;SDS011;9179;50.968;3.134;2023-08-08T11:28:13;3.25;;;1.10;;
18104;SDS011;9179;50.968;3.134;2023-08-08T11:30:41;1.33;;;1.20;;
18104;SDS011;9179;50.968;3.134;2023-08-08T11:33:09;1.75;;;1.25;;
18104;SDS011;9179;50.968;3.134;2023-08-08T11:35:42;2.97;;;1.17;;
18104;SDS011;9179;50.968;3.134;2023-08-08T11:38:10;1.27;;;1.15;;
18104;SDS011;9179;50.968;3.134;2023-08-08T11:40:40;1.13;;;1.10;;
18104;SDS011;9179;50.968;3.134;2023-08-08T11:43:07;1.50;;;0.98;;
18104;SDS011;9179;50.968;3.134;2023-08-08T11:45:36;1.20;;;0.90;;
18104;SDS011;9179;50.968;3.134;2023-08-08T11:48:04;1.23;;;1.17;;
18104;SDS011;9179;50.968;3.134;2023-08-08T11:50:31;1.65;;;1.20;;
18104;SDS011;9179;50.968;3.134;2023-08-08T11:52:58;1.40;;;1.30;;
18104;SDS011;9179;50.968;3.134;2023-08-08T11:55:28;1.15;;;0.93;;
18104;SDS011;9179;50.968;3.134;2023-08-08T11:57:58;1.40;;;1.00;;
18104;SDS011;9179;50.968;3.134;2023-08-08T12:00:26;1.40;;;0.90;;
18104;SDS011;9179;50.968;3.134;2023-08-08T12:02:54;1.33;;;0.88;;
18104;SDS011;9179;50.968;3.134;2023-08-08T12:05:22;1.80;;;1.10;;
18104;SDS011;9179;50.968;3.134;2023-08-08T12:07:49;1.10;;;0.88;;
18104;SDS011;9179;50.968;3.134;2023-08-08T12:10:18;1.83;;;0.80;;
18104;SDS011;9179;50.968;3.134;2023-08-08T12:12:46;1.98;;;0.75;;
18104;SDS011;9179;50.968;3.134;2023-08-08T12:15:15;1.27;;;0.70;;
18104;SDS011;9179;50.968;3.134;2023-08-08T12:17:42;1.20;;;0.80;;
18104;SDS011;9179;50.968;3.134;2023-08-08T12:20:09;1.30;;;0.93;;
18104;SDS011;9179;50.968;3.134;2023-08-08T12:22:36;1.10;;;1.00;;
18104;SDS011;9179;50.968;3.134;2023-08-08T12:25:04;1.67;;;1.30;;
18104;SDS011;9179;50.968;3.134;2023-08-08T12:27:33;1.67;;;0.88;;
18104;SDS011;9179;50.968;3.134;2023-08-08T12:30:00;1.50;;;0.80;;
18104;SDS011;9179;50.968;3.134;2023-08-08T12:32:28;1.30;;;0.70;;
18104;SDS011;9179;50.968;3.134;2023-08-08T12:34:56;1.48;;;0.77;;
18104;SDS011;9179;50.968;3.134;2023-08-08T12:37:23;1.38;;;1.00;;
18104;SDS011;9179;50.968;3.134;2023-08-08T12:39:50;1.10;;;1.10;;
18104;SDS011;9179;50.968;3.134;2023-08-08T12:42:17;2.17;;;1.00;;
18104;SDS011;9179;50.968;3.134;2023-08-08T12:44:44;1.25;;;1.15;;
18104;SDS011;9179;50.968;3.134;2023-08-08T12:47:12;1.50;;;1.15;;
18104;SDS011;9179;50.968;3.134;2023-08-08T12:49:40;1.90;;;1.10;;
18104;SDS011;9179;50.968;3.134;2023-08-08T12:52:07;1.08;;;0.93;;
18104;SDS011;9179;50.968;3.134;2023-08-08T12:54:34;2.28;;;1.00;;
18104;SDS011;9179;50.968;3.134;2023-08-08T12:57:02;1.98;;;1.00;;
18104;SDS011;9179;50.968;3.134;2023-08-08T12:59:29;1.20;;;1.10;;
18104;SDS011;9179;50.968;3.134;2023-08-08T13:01:56;1.83;;;0.95;;
18104;SDS011;9179;50.968;3.134;2023-08-08T13:04:23;2.17;;;1.17;;
18104;SDS011;9179;50.968;3.134;2023-08-08T13:06:51;1.30;;;1.20;;
18104;SDS011;9179;50.968;3.134;2023-08-08T13:09:18;2.13;;;1.27;;
18104;SDS011;9179;50.968;3.134;2023-08-08T13:11:46;2.33;;;1.08;;
18104;SDS011;9179;50.968;3.134;2023-08-08T13:14:12;1.58;;;1.48;;
18104;SDS011;9179;50.968;3.134;2023-08-08T13:16:39;1.00;;;0.90;;
18104;SDS011;9179;50.968;3.134;2023-08-08T13:19:06;0.93;;;0.90;;
18104;SDS011;9179;50.968;3.134;2023-08-08T13:21:33;1.58;;;1.02;;
18104;SDS011;9179;50.968;3.134;2023-08-08T13:24:02;2.50;;;1.55;;
18104;SDS011;9179;50.968;3.134;2023-08-08T13:26:29;2.17;;;1.33;;
18104;SDS011;9179;50.968;3.134;2023-08-08T13:28:56;1.73;;;1.45;;
18104;SDS011;9179;50.968;3.134;2023-08-08T13:31:23;1.27;;;1.17;;
18104;SDS011;9179;50.968;3.134;2023-08-08T13:33:50;1.15;;;1.05;;
18104;SDS011;9179;50.968;3.134;2023-08-08T13:36:16;1.60;;;1.23;;
18104;SDS011;9179;50.968;3.134;2023-08-08T13:38:43;1.52;;;1.42;;
18104;SDS011;9179;50.968;3.134;2023-08-08T13:41:11;2.67;;;1.40;;
18104;SDS011;9179;50.968;3.134;2023-08-08T13:43:38;4.00;;;1.83;;
18104;SDS011;9179;50.968;3.134;2023-08-08T13:46:05;2.20;;;1.30;;
18104;SDS011;9179;50.968;3.134;2023-08-08T13:48:34;2.95;;;2.03;;
18104;SDS011;9179;50.968;3.134;2023-08-08T13:51:01;2.08;;;1.60;;
18104;SDS011;9179;50.968;3.134;2023-08-08T13:53:28;4.47;;;2.13;;
18104;SDS011;9179;50.968;3.134;2023-08-08T13:55:55;2.67;;;1.90;;
18104;SDS011;9179;50.968;3.134;2023-08-08T13:58:24;1.98;;;1.88;;
18104;SDS011;9179;50.968;3.134;2023-08-08T14:00:51;2.20;;;1.77;;
18104;SDS011;9179;50.968;3.134;2023-08-08T14:03:18;1.77;;;1.67;;
18104;SDS011;9179;50.968;3.134;2023-08-08T14:05:45;2.00;;;1.90;;
18104;SDS011;9179;50.968;3.134;2023-08-08T14:08:12;2.10;;;2.00;;
18104;SDS011;9179;50.968;3.134;2023-08-08T14:10:39;2.58;;;2.10;;
18104;SDS011;9179;50.968;3.134;2023-08-08T14:13:06;2.72;;;2.53;;
18104;SDS011;9179;50.968;3.134;2023-08-08T14:15:34;2.00;;;1.90;;
18104;SDS011;9179;50.968;3.134;2023-08-08T14:18:01;2.38;;;2.17;;
18104;SDS011;9179;50.968;3.134;2023-08-08T14:20:28;3.70;;;2.83;;
18104;SDS011;9179;50.968;3.134;2023-08-08T14:22:55;2.55;;;2.05;;
18104;SDS011;9179;50.968;3.134;2023-08-08T14:25:22;1.92;;;1.83;;
18104;SDS011;9179;50.968;3.134;2023-08-08T14:27:49;2.50;;;2.35;;
18104;SDS011;9179;50.968;3.134;2023-08-08T14:30:16;2.78;;;2.58;;
18104;SDS011;9179;50.968;3.134;2023-08-08T14:32:44;2.88;;;2.67;;
18104;SDS011;9179;50.968;3.134;2023-08-08T14:35:11;2.75;;;2.55;;
18104;SDS011;9179;50.968;3.134;2023-08-08T14:37:38;2.30;;;2.10;;
18104;SDS011;9179;50.968;3.134;2023-08-08T14:40:06;2.88;;;2.45;;
18104;SDS011;9179;50.968;3.134;2023-08-08T14:42:34;2.60;;;2.40;;
18104;SDS011;9179;50.968;3.134;2023-08-08T14:45:00;4.10;;;2.20;;
18104;SDS011;9179;50.968;3.134;2023-08-08T14:47:27;4.03;;;2.75;;
18104;SDS011;9179;50.968;3.134;2023-08-08T14:49:56;3.72;;;3.10;;
18104;SDS011;9179;50.968;3.134;2023-08-08T14:52:23;2.95;;;2.70;;
18104;SDS011;9179;50.968;3.134;2023-08-08T14:54:50;4.82;;;2.60;;
18104;SDS011;9179;50.968;3.134;2023-08-08T14:57:17;3.13;;;2.50;;
18104;SDS011;9179;50.968;3.134;2023-08-08T14:59:44;2.58;;;2.38;;
18104;SDS011;9179;50.968;3.134;2023-08-08T15:02:11;3.83;;;3.38;;